Monday, July 25, 2016, 3:58 PM EDT

KMDT, Harrisburg International Airport

Location: Middletown, PA, United States Lat: 40.2
Local Time: 3:58 PM EDT (19:58 GMT) Lon: -76.767
Time Zone: US/Eastern Elev: 308 ft

Show me the last for .
Show Decoded

2016-07-25 15:34 METAR KMDT 251934Z 00000KT 10SM SCT050 BKN110 BKN250 30/22 A2985 RMK AO2 WSHFT
                 1848 TSE28 TS MOVD NE-E CB DSNT N-E T03000222 =
2016-07-25 15:08 METAR KMDT 251908Z 02011G18KT 10SM TS SCT050CB BKN060 BKN075 OVC250 30/22 A2987
                 RMK AO2 WSHFT 1848 OCNL LTGICCG VC N-NE TS N-NE MOV E VCSH N-NE T03000222 =
2016-07-25 14:56 METAR KMDT 251856Z 35015G27KT 10SM TS BKN055CB BKN120 OVC250 31/23 A2986 RMK AO2
                 PK WND 34027/1851 TSB33 SLP110 OCNL LTGICCG VC NW-NE TS VC NW-NE MOV E VCSH
                 NW-NE T03060228 =
2016-07-25 14:39 METAR KMDT 251839Z 24009G16KT 200V310 10SM TS BKN055CB BKN120 OVC250 35/23 A2985
                 RMK AO2 TSB33 OCNL LTGICCG VC NW-N TS VC NW-N MOV E VCSH W T03500233 =
2016-07-25 13:56 METAR KMDT 251756Z VRB06KT 10SM BKN060 BKN120 OVC250 36/25 A2987 RMK AO2 SLP111
                 T03560250 10361 20256 58026 =
2016-07-25 12:56 METAR KMDT 251656Z 00000KT 10SM SCT040 SCT120 BKN200 33/25 A2990 RMK AO2 SLP123
                 T03330250 =
2016-07-25 11:56 METAR KMDT 251556Z 00000KT 10SM SCT250 32/26 A2992 RMK AO2 SLP131 T03220256 =
2016-07-25 10:56 METAR KMDT 251456Z 00000KT 10SM BKN200 32/24 A2995 RMK AO2 SLP138 T03170244
                 58000 =
2016-07-25 09:56 METAR KMDT 251356Z 00000KT 10SM SCT150 BKN250 29/24 A2995 RMK AO2 SLP139
                 T02940239 =
2016-07-25 08:56 METAR KMDT 251256Z 30003KT 10SM CLR 27/24 A2995 =
2016-07-25 07:56 METAR KMDT 251156Z 31004KT 10SM FEW120 SCT250 26/24 A2995 RMK AO2 SLP139 60005
                 70023 T02560239 10256 20239 58001 =
2016-07-25 06:56 METAR KMDT 251056Z 00000KT 10SM BKN110 BKN250 26/24 A2996 =
2016-07-25 05:56 METAR KMDT 250956Z 00000KT 9SM FEW085 BKN110 BKN250 24/24 A2996 RMK AO2 SLP143
                 T02440239 =
2016-07-25 04:56 METAR KMDT 250856Z 32004KT 10SM SCT080 OVC095 24/24 A2995 RMK AO2 SLP140 60005
                 T02390239 55004 =
2016-07-25 03:56 METAR KMDT 250756Z 00000KT 10SM FEW070 OVC100 24/24 A2994 RMK AO2 RAE06B22E32
                 SLP137 P0000 T02440239 =
2016-07-25 02:56 METAR KMDT 250656Z 00000KT 10SM -RA BKN070 OVC090 24/24 A2995 RMK AO2 RAE37B56
                 SLP139 VCSH S-SW P0005 T02440239 =
2016-07-25 01:56 METAR KMDT 250556Z 29008KT 7SM RA BKN060 OVC080 25/23 A2996 RMK AO2 RAE0457B48
                 SLP145 P0001 60018 T02500233 10311 20250 56006 =
2016-07-25 00:56 METAR KMDT 250456Z 00000KT 10SM -RA FEW048 BKN065 BKN110 OVC250 26/24 A2997 RMK
                 AO2 RAB48 SLP146 P0000 T02560244 403500200 =
2016-07-24 23:56 METAR KMDT 250356Z 13003KT 10SM SCT065 BKN120 OVC250 26/24 A2997 RMK AO2 SLP147
                 T02560239 =
2016-07-24 22:56 METAR KMDT 250256Z 00000KT 10SM FEW080 SCT110 OVC250 26/24 A2998 RMK AO2 RAE19
                 SLP151 P0000 60017 T02560244 50018 =
2016-07-24 21:56 METAR KMDT 250156Z VRB03KT 10SM -RA FEW060 SCT075 BKN110 OVC250 26/24 A3000 RMK
                 AO2 RAE11B46 SLP157 P0008 T02610239 =
2016-07-24 21:10 METAR KMDT 250110Z 32007KT 7SM -RA FEW031 OVC060 27/24 A3000 RMK AO2 P0008
                 T02670239 =
2016-07-24 20:56 METAR KMDT 250056Z 28014G32KT 2SM +RA FEW031 OVC060 27/23 A3000 =
2016-07-24 19:56 METAR KMDT 242356Z 16004KT 10SM SCT080 SCT150 OVC250 31/23 A2993 RMK AO2 SLP133
                 T03110228 10350 20311 55002 =
2016-07-24 18:56 METAR KMDT 242256Z 17004KT 10SM SCT080 SCT150 OVC250 32/22 A2993 RMK AO2 SLP132
                 T03220217 =
2016-07-24 17:56 METAR KMDT 242156Z 14006KT 10SM FEW080 SCT130 BKN250 34/20 A2993 =
2016-07-24 16:56 METAR KMDT 242056Z 18005KT 10SM FEW080 SCT130 BKN250 34/19 A2993 RMK AO2 SLP134
                 T03390194 56018 =

Support USWX by starting your Amazon purchase here.